createdAt,value
2023-05-16T00:00:15.243Z,77.58
2023-05-16T00:02:42.552Z,77.69
2023-05-16T00:05:10.793Z,78.03
2023-05-16T00:07:37.311Z,78.28
2023-05-16T00:10:03.996Z,77.92
2023-05-16T00:12:30.472Z,77.92
2023-05-16T00:14:57.171Z,78.39
2023-05-16T00:17:24.027Z,78.24
2023-05-16T00:19:54.081Z,78.07
2023-05-16T00:22:21.194Z,78.04
2023-05-16T00:24:47.659Z,78.31
2023-05-16T00:27:14.064Z,78.30
2023-05-16T00:29:40.609Z,78.05
2023-05-16T00:32:08.935Z,77.58
2023-05-16T00:34:36.322Z,77.81
2023-05-16T00:37:03.059Z,77.88
2023-05-16T00:39:29.649Z,77.71
2023-05-16T00:41:57.709Z,77.53
2023-05-16T00:44:24.268Z,77.16
2023-05-16T00:46:50.684Z,77.15
2023-05-16T00:49:17.429Z,77.40
2023-05-16T00:51:44.349Z,77.31
2023-05-16T00:54:10.919Z,77.10
2023-05-16T00:56:37.863Z,77.16
2023-05-16T00:59:04.386Z,77.98
2023-05-16T01:01:31.725Z,78.05
2023-05-16T01:03:58.722Z,77.76
2023-05-16T01:06:25.232Z,77.59
2023-05-16T01:08:51.731Z,77.64
2023-05-16T01:11:43.819Z,78.07
2023-05-16T01:14:35.034Z,77.66
2023-05-16T01:17:11.921Z,77.91
2023-05-16T01:20:02.767Z,77.83
2023-05-16T01:22:48.270Z,78.11
2023-05-16T01:25:33.181Z,77.96
2023-05-16T01:27:59.748Z,78.05
2023-05-16T01:30:26.699Z,77.95
2023-05-16T01:32:53.270Z,77.76
2023-05-16T01:35:20.778Z,77.62
2023-05-16T01:38:32.054Z,78.22
2023-05-16T01:41:08.505Z,78.21
2023-05-16T01:43:42.145Z,77.78
2023-05-16T01:46:15.251Z,78.08
2023-05-16T01:49:09.114Z,77.59
2023-05-16T01:51:40.406Z,78.48
2023-05-16T01:54:13.858Z,78.65
2023-05-16T01:56:47.010Z,78.52
2023-05-16T01:59:14.420Z,78.75
2023-05-16T02:01:41.452Z,78.55
2023-05-16T02:04:08.265Z,78.34
2023-05-16T02:06:34.865Z,78.10
2023-05-16T02:09:01.227Z,78.03
2023-05-16T02:11:27.661Z,78.65
2023-05-16T02:13:54.038Z,78.44
2023-05-16T02:16:20.862Z,78.51
2023-05-16T02:18:47.733Z,79.24
2023-05-16T02:21:14.176Z,79.11
2023-05-16T02:23:40.796Z,79.11
2023-05-16T02:26:07.500Z,79.53
2023-05-16T02:28:34.012Z,79.29
2023-05-16T02:31:01.296Z,79.52
2023-05-16T02:33:29.405Z,79.29
2023-05-16T02:35:56.069Z,79.33
2023-05-16T02:38:22.793Z,79.67
2023-05-16T02:40:49.597Z,79.14
2023-05-16T02:43:16.076Z,79.47
2023-05-16T02:45:42.720Z,79.36
2023-05-16T02:48:09.465Z,79.22
2023-05-16T02:50:37.713Z,79.17
2023-05-16T02:53:04.650Z,79.26
2023-05-16T02:55:31.350Z,79.69
2023-05-16T02:57:57.730Z,79.70
2023-05-16T03:00:24.232Z,80.17
2023-05-16T03:02:51.413Z,80.19
2023-05-16T03:05:18.506Z,80.54
2023-05-16T03:07:44.895Z,80.17
2023-05-16T03:10:11.459Z,80.50
2023-05-16T03:12:37.857Z,81.06
2023-05-16T03:15:04.850Z,81.57
2023-05-16T03:17:31.598Z,80.94
2023-05-16T03:19:58.519Z,81.61
2023-05-16T03:22:25.016Z,81.88
2023-05-16T03:24:51.446Z,81.68
2023-05-16T03:27:17.832Z,82.14
2023-05-16T03:29:44.362Z,82.27
2023-05-16T03:32:11.823Z,82.36
2023-05-16T03:34:38.304Z,82.49
2023-05-16T03:37:04.771Z,81.99
2023-05-16T03:39:31.409Z,82.49
2023-05-16T03:41:57.979Z,82.57
2023-05-16T03:44:24.440Z,82.41
2023-05-16T03:46:51.572Z,82.47
2023-05-16T03:49:18.562Z,81.98
2023-05-16T03:51:45.392Z,82.42
2023-05-16T03:54:11.919Z,81.95
2023-05-16T03:56:38.533Z,82.25
2023-05-16T03:59:05.013Z,82.53
2023-05-16T04:01:31.675Z,82.75
2023-05-16T04:03:58.316Z,82.72
2023-05-16T04:06:24.892Z,82.52
2023-05-16T04:08:51.326Z,82.78
2023-05-16T04:11:17.702Z,82.23
2023-05-16T04:13:44.090Z,82.89
2023-05-16T04:16:10.481Z,82.90
2023-05-16T04:18:36.941Z,82.96
2023-05-16T04:21:03.834Z,83.10
2023-05-16T04:23:30.429Z,82.73
2023-05-16T04:25:57.141Z,82.65
2023-05-16T04:28:23.710Z,82.54
2023-05-16T04:30:50.618Z,83.08
2023-05-16T04:33:17.369Z,82.36
2023-05-16T04:35:44.136Z,82.44
2023-05-16T04:38:10.713Z,82.10
2023-05-16T04:40:37.803Z,82.02
2023-05-16T04:43:04.373Z,82.06
2023-05-16T04:45:30.819Z,81.83
2023-05-16T04:47:57.795Z,82.26
2023-05-16T04:50:24.533Z,81.50
2023-05-16T04:52:50.926Z,81.19
2023-05-16T04:55:17.517Z,80.99
2023-05-16T04:57:44.045Z,80.37
2023-05-16T05:00:12.198Z,80.40
2023-05-16T05:02:39.171Z,80.23
2023-05-16T05:05:06.992Z,80.40
2023-05-16T05:07:33.630Z,80.16
2023-05-16T05:10:00.190Z,79.15
2023-05-16T05:12:27.984Z,79.45
2023-05-16T05:14:55.468Z,79.39
2023-05-16T05:17:23.670Z,79.63
2023-05-16T05:19:50.688Z,79.17
2023-05-16T05:22:17.235Z,78.69
2023-05-16T05:24:43.679Z,79.01
2023-05-16T05:27:10.406Z,74.01
2023-05-16T05:29:36.918Z,67.37
2023-05-16T05:32:03.729Z,61.59
2023-05-16T05:34:30.757Z,57.27
2023-05-16T05:36:57.586Z,56.88
2023-05-16T05:39:25.688Z,58.15
2023-05-16T05:41:52.549Z,60.84
2023-05-16T05:44:19.094Z,60.16
2023-05-16T05:46:45.621Z,53.11
2023-05-16T05:51:53.312Z,45.62
2023-05-16T05:54:20.005Z,46.89
2023-05-16T05:56:46.757Z,44.15
2023-05-16T05:59:13.614Z,40.21
2023-05-16T06:01:40.071Z,39.19
2023-05-16T06:04:06.651Z,36.49
2023-05-16T06:06:33.374Z,36.51
2023-05-16T06:08:59.784Z,35.82
2023-05-16T06:11:26.210Z,34.13
2023-05-16T06:13:52.884Z,34.47
2023-05-16T06:16:19.554Z,33.53
2023-05-16T06:18:46.143Z,33.05
2023-05-16T06:21:12.631Z,32.86
2023-05-16T06:23:39.097Z,31.56
2023-05-16T06:26:05.728Z,31.87
2023-05-16T06:28:32.180Z,31.99
2023-05-16T06:30:58.624Z,31.37
2023-05-16T06:33:25.008Z,31.58
2023-05-16T06:35:52.597Z,32.61
2023-05-16T06:38:19.816Z,34.19
2023-05-16T06:40:46.434Z,32.94
2023-05-16T06:43:13.091Z,33.18
2023-05-16T06:45:39.727Z,31.93
2023-05-16T06:48:08.069Z,33.35
2023-05-16T06:50:35.724Z,35.48
2023-05-16T06:53:04.896Z,35.34
2023-05-16T06:55:31.355Z,37.59
2023-05-16T06:57:57.862Z,39.13
2023-05-16T07:00:24.669Z,37.84
2023-05-16T07:02:51.564Z,39.46
2023-05-16T07:05:18.397Z,38.33
2023-05-16T07:07:45.605Z,40.65
2023-05-16T07:10:12.312Z,41.06
2023-05-16T07:12:42.287Z,42.85
2023-05-16T07:15:09.634Z,44.78
2023-05-16T07:17:36.970Z,46.32
2023-05-16T07:20:05.502Z,45.26
2023-05-16T07:22:32.416Z,43.62
2023-05-16T07:25:01.307Z,43.76
2023-05-16T07:27:28.508Z,46.68
2023-05-16T07:29:55.197Z,47.15
2023-05-16T07:32:21.700Z,43.47
2023-05-16T07:34:48.317Z,41.12
2023-05-16T07:37:16.162Z,41.12
2023-05-16T07:39:42.805Z,43.68
2023-05-16T07:42:09.524Z,41.48
2023-05-16T07:44:36.116Z,40.54
2023-05-16T07:47:03.102Z,38.91
2023-05-16T07:49:29.781Z,38.62
2023-05-16T07:51:56.234Z,41.10
2023-05-16T07:54:28.640Z,39.16
2023-05-16T07:56:55.548Z,40.39
2023-05-16T07:59:22.374Z,37.52
2023-05-16T08:01:49.039Z,39.92
2023-05-16T08:04:15.654Z,41.88
2023-05-16T08:06:42.148Z,44.22
2023-05-16T08:09:09.694Z,46.19
2023-05-16T08:11:36.292Z,47.07
2023-05-16T08:14:03.364Z,47.44
2023-05-16T08:16:29.974Z,48.45
2023-05-16T08:18:56.540Z,49.13
2023-05-16T08:21:23.216Z,49.83
2023-05-16T08:23:49.884Z,46.36
2023-05-16T08:26:17.953Z,43.08
2023-05-16T08:28:44.406Z,47.55
2023-05-16T08:31:11.018Z,43.43
2023-05-16T08:33:37.703Z,46.44
2023-05-16T08:36:04.573Z,44.85
2023-05-16T08:38:31.098Z,43.71
2023-05-16T08:40:57.899Z,44.15
2023-05-16T08:43:24.576Z,44.86
2023-05-16T08:45:51.070Z,46.55
2023-05-16T08:48:22.890Z,46.57
2023-05-16T08:50:49.818Z,44.25
2023-05-16T08:53:22.534Z,43.59
2023-05-16T08:55:50.446Z,41.77
2023-05-16T08:58:17.744Z,42.01
2023-05-16T09:00:45.210Z,41.58
2023-05-16T09:03:12.269Z,41.08
2023-05-16T09:05:39.120Z,40.53
2023-05-16T09:08:06.041Z,39.67
2023-05-16T09:10:32.499Z,38.66
2023-05-16T09:12:59.216Z,39.47
2023-05-16T09:15:31.891Z,40.61
2023-05-16T09:18:01.733Z,39.64
2023-05-16T09:20:28.389Z,38.83
2023-05-16T09:22:57.369Z,38.58
2023-05-16T09:25:32.231Z,40.97
2023-05-16T09:28:01.734Z,38.71
2023-05-16T09:30:34.598Z,38.98
2023-05-16T09:33:01.910Z,38.33
2023-05-16T09:37:58.230Z,35.82
2023-05-16T09:40:24.867Z,35.73
2023-05-16T09:43:18.599Z,36.83
2023-05-16T09:45:48.267Z,35.77
2023-05-16T09:48:15.512Z,36.58
2023-05-16T09:50:49.425Z,38.60
2023-05-16T09:53:16.086Z,38.89
2023-05-16T09:55:42.509Z,37.02
2023-05-16T09:58:08.952Z,40.25
2023-05-16T10:00:35.831Z,39.76
2023-05-16T10:03:05.789Z,37.35
2023-05-16T10:05:33.092Z,35.19
2023-05-16T10:08:01.961Z,37.23
2023-05-16T10:10:29.861Z,39.15
2023-05-16T10:12:59.616Z,39.97
2023-05-16T10:15:27.708Z,38.04
2023-05-16T10:17:57.174Z,37.24
2023-05-16T10:20:24.052Z,36.38
2023-05-16T10:22:55.588Z,36.89
2023-05-16T10:25:32.527Z,36.92
2023-05-16T10:28:00.129Z,38.21
2023-05-16T10:30:27.297Z,39.70
2023-05-16T10:32:54.168Z,40.59
2023-05-16T10:35:21.847Z,39.63
2023-05-16T10:37:50.639Z,39.18
2023-05-16T10:40:17.812Z,38.36
2023-05-16T10:43:01.075Z,40.03
2023-05-16T10:45:28.504Z,40.90
2023-05-16T10:48:00.269Z,39.04
2023-05-16T10:50:41.863Z,39.63
2023-05-16T10:53:22.647Z,40.42
2023-05-16T10:56:04.184Z,40.75
2023-05-16T10:58:35.253Z,40.71
2023-05-16T11:01:22.220Z,40.82
2023-05-16T11:03:58.312Z,38.44
2023-05-16T11:06:40.833Z,37.26
2023-05-16T11:09:10.636Z,39.58
2023-05-16T11:11:49.046Z,40.03
2023-05-16T11:14:42.552Z,39.47
2023-05-16T11:17:23.839Z,36.55
2023-05-16T11:19:52.747Z,37.82
2023-05-16T11:22:19.679Z,37.68
2023-05-16T11:25:03.386Z,38.12
2023-05-16T11:27:35.022Z,38.91
2023-05-16T11:30:07.514Z,38.96
2023-05-16T11:32:36.563Z,39.69
2023-05-16T11:35:04.586Z,39.51
2023-05-16T11:37:31.555Z,40.32
2023-05-16T11:40:02.046Z,40.88
2023-05-16T11:42:34.276Z,41.81
2023-05-16T11:45:14.699Z,42.21
2023-05-16T11:47:42.485Z,42.66
2023-05-16T11:50:14.604Z,44.34
2023-05-16T11:52:47.053Z,42.95
2023-05-16T11:55:19.353Z,43.46
2023-05-16T11:57:57.389Z,43.92
2023-05-16T12:00:26.463Z,44.53
2023-05-16T12:02:55.270Z,44.57
2023-05-16T12:05:27.243Z,46.22
2023-05-16T12:07:54.616Z,45.57
2023-05-16T12:10:21.578Z,45.88
2023-05-16T12:12:52.590Z,44.90
2023-05-16T12:15:19.594Z,44.75
2023-05-16T12:17:47.829Z,43.97
2023-05-16T12:20:16.473Z,44.47
2023-05-16T12:22:45.053Z,43.97
2023-05-16T12:25:21.991Z,44.18
2023-05-16T12:27:48.629Z,44.95
2023-05-16T12:30:18.060Z,45.57
2023-05-16T12:32:45.101Z,45.94
2023-05-16T12:35:13.320Z,44.86
2023-05-16T12:37:39.895Z,45.52
2023-05-16T12:40:11.192Z,46.16
2023-05-16T12:42:38.007Z,45.87
2023-05-16T12:45:05.696Z,46.45
2023-05-16T12:47:36.864Z,45.56
2023-05-16T12:50:08.978Z,46.62
2023-05-16T12:52:37.955Z,47.11
2023-05-16T12:55:05.033Z,45.74
2023-05-16T12:57:34.395Z,47.06
2023-05-16T13:00:01.583Z,46.66
2023-05-16T13:02:28.184Z,46.17
2023-05-16T13:04:54.844Z,46.38
2023-05-16T13:07:21.401Z,46.11
2023-05-16T13:09:47.866Z,46.51
2023-05-16T13:12:14.664Z,46.37
2023-05-16T13:14:43.711Z,47.20
2023-05-16T13:17:11.817Z,47.08
2023-05-16T13:19:38.385Z,47.65
2023-05-16T13:22:05.081Z,46.82
2023-05-16T13:24:31.511Z,46.74
2023-05-16T13:26:59.491Z,46.53
2023-05-16T13:29:26.063Z,46.81
2023-05-16T13:31:52.759Z,47.56
2023-05-16T13:34:19.434Z,47.68
2023-05-16T13:36:53.949Z,48.94
2023-05-16T13:39:22.038Z,48.04
2023-05-16T13:41:49.208Z,48.16
2023-05-16T13:44:16.570Z,48.62
2023-05-16T13:46:43.321Z,49.08
2023-05-16T13:49:09.895Z,49.68
2023-05-16T13:51:36.484Z,48.47
2023-05-16T13:54:03.270Z,47.18
2023-05-16T13:56:29.706Z,47.56
2023-05-16T13:59:03.937Z,47.56
2023-05-16T14:01:32.828Z,48.60
2023-05-16T14:03:59.724Z,49.06
2023-05-16T14:06:26.384Z,49.15
2023-05-16T14:08:52.920Z,49.30
2023-05-16T14:11:20.107Z,48.67
2023-05-16T14:13:46.818Z,49.19
2023-05-16T14:16:13.298Z,48.15
2023-05-16T14:18:39.989Z,49.01
2023-05-16T14:21:06.606Z,48.46
2023-05-16T14:23:33.830Z,48.72
2023-05-16T14:26:01.271Z,49.35
2023-05-16T14:28:27.822Z,48.44
2023-05-16T14:30:54.611Z,48.93
2023-05-16T14:33:21.414Z,48.91
2023-05-16T14:35:50.203Z,48.96
2023-05-16T14:38:16.982Z,49.81
2023-05-16T14:40:43.510Z,48.77
2023-05-16T14:43:10.234Z,48.51
2023-05-16T14:45:38.211Z,48.17
2023-05-16T14:48:08.340Z,49.39
2023-05-16T14:50:35.330Z,49.27
2023-05-16T14:53:02.002Z,49.22
2023-05-16T14:55:28.957Z,48.96
2023-05-16T14:57:59.541Z,49.41
2023-05-16T15:00:27.372Z,49.00
2023-05-16T15:02:54.234Z,48.62
2023-05-16T15:05:21.003Z,48.10
2023-05-16T15:07:47.640Z,48.72
2023-05-16T15:10:14.475Z,48.31
2023-05-16T15:12:41.141Z,48.47
2023-05-16T15:15:12.581Z,48.33
2023-05-16T15:17:42.027Z,48.54
2023-05-16T15:20:10.632Z,48.11
2023-05-16T15:22:38.714Z,48.10
2023-05-16T15:25:05.924Z,48.85
2023-05-16T15:27:32.772Z,49.54
2023-05-16T15:29:59.620Z,49.13
2023-05-16T15:32:26.449Z,48.80
2023-05-16T15:34:53.423Z,48.34
2023-05-16T15:37:20.920Z,47.73
2023-05-16T15:39:48.089Z,48.23
2023-05-16T15:42:15.053Z,48.54
2023-05-16T15:44:41.559Z,48.54
2023-05-16T15:47:09.129Z,49.80
2023-05-16T15:49:35.546Z,49.85
2023-05-16T15:52:02.176Z,49.38
2023-05-16T15:54:29.376Z,50.14
2023-05-16T15:56:56.008Z,49.95
2023-05-16T15:59:22.476Z,49.61
2023-05-16T16:01:49.052Z,50.12
2023-05-16T16:04:19.445Z,50.40
2023-05-16T16:06:47.945Z,50.67
2023-05-16T16:09:16.152Z,51.12
2023-05-16T16:11:42.820Z,51.53
2023-05-16T16:14:11.308Z,51.16
2023-05-16T16:16:39.845Z,51.76
2023-05-16T16:19:07.323Z,52.53
2023-05-16T16:21:34.582Z,52.31
2023-05-16T16:24:01.265Z,52.93
2023-05-16T16:26:27.955Z,53.41
2023-05-16T16:28:54.438Z,54.10
2023-05-16T16:31:21.866Z,54.56
2023-05-16T16:33:49.278Z,55.96
2023-05-16T16:36:16.580Z,56.64
2023-05-16T16:38:43.236Z,58.62
2023-05-16T16:41:10.544Z,59.85
2023-05-16T16:43:39.936Z,60.67
2023-05-16T16:46:07.527Z,61.20
2023-05-16T16:48:35.119Z,62.38
2023-05-16T16:51:02.157Z,63.67
2023-05-16T16:53:29.661Z,64.06
2023-05-16T16:55:56.334Z,63.93
2023-05-16T16:58:22.793Z,63.74
2023-05-16T17:00:49.325Z,63.67
2023-05-16T17:03:16.242Z,63.18
2023-05-16T17:05:44.823Z,63.36
2023-05-16T17:08:12.243Z,63.64
2023-05-16T17:10:39.919Z,64.22
2023-05-16T17:13:10.684Z,64.04
2023-05-16T17:15:37.980Z,64.69
2023-05-16T17:18:08.596Z,64.66
2023-05-16T17:20:36.576Z,64.91
2023-05-16T17:23:04.116Z,64.73
2023-05-16T17:25:31.189Z,65.12
2023-05-16T17:27:58.280Z,65.60
2023-05-16T17:30:25.277Z,65.80
2023-05-16T17:32:51.816Z,67.33
2023-05-16T17:35:18.397Z,66.38
2023-05-16T17:37:47.551Z,65.60
2023-05-16T17:40:17.044Z,65.00
2023-05-16T17:42:45.135Z,64.42
2023-05-16T17:45:16.758Z,64.43
2023-05-16T17:47:43.558Z,63.91
2023-05-16T17:50:10.886Z,63.97
2023-05-16T17:52:39.934Z,64.10
2023-05-16T17:55:08.858Z,63.67
2023-05-16T17:57:35.407Z,63.94
2023-05-16T18:00:03.846Z,63.81
2023-05-16T18:02:38.180Z,63.81
2023-05-16T18:05:07.067Z,64.22
2023-05-16T18:07:34.351Z,64.00
2023-05-16T18:10:00.921Z,63.69
2023-05-16T18:12:27.654Z,63.35
2023-05-16T18:14:54.584Z,63.05
2023-05-16T18:17:21.375Z,62.94
2023-05-16T18:19:47.934Z,62.97
2023-05-16T18:22:14.667Z,63.14
2023-05-16T18:24:41.171Z,62.97
2023-05-16T18:27:07.715Z,63.42
2023-05-16T18:29:34.789Z,63.00
2023-05-16T18:32:01.513Z,63.48
2023-05-16T18:34:28.496Z,63.39
2023-05-16T18:36:55.041Z,63.69
2023-05-16T18:39:21.609Z,63.30
2023-05-16T18:41:48.635Z,63.88
2023-05-16T18:44:17.960Z,63.56
2023-05-16T18:46:45.974Z,63.73
2023-05-16T18:49:13.647Z,63.90
2023-05-16T18:51:40.615Z,63.98
2023-05-16T18:54:07.425Z,64.39
2023-05-16T18:56:34.600Z,64.46
2023-05-16T18:59:01.236Z,64.73
2023-05-16T19:01:27.902Z,64.63
2023-05-16T19:03:54.835Z,64.67
2023-05-16T19:06:21.433Z,65.47
2023-05-16T19:08:48.462Z,65.76
2023-05-16T19:11:17.209Z,65.82
2023-05-16T19:13:44.953Z,65.76
2023-05-16T19:16:11.561Z,65.53
2023-05-16T19:18:38.296Z,66.64
2023-05-16T19:21:05.479Z,66.43
2023-05-16T19:23:32.526Z,66.93
2023-05-16T19:26:00.161Z,66.97
2023-05-16T19:28:26.754Z,67.51
2023-05-16T19:30:53.187Z,67.47
2023-05-16T19:33:21.415Z,67.51
2023-05-16T19:35:48.754Z,67.78
2023-05-16T19:38:15.271Z,67.93
2023-05-16T19:40:42.382Z,68.72
2023-05-16T19:43:09.454Z,69.37
2023-05-16T19:45:36.363Z,69.42
2023-05-16T19:48:03.626Z,70.15
2023-05-16T19:50:30.248Z,70.59
2023-05-16T19:52:56.913Z,70.96
2023-05-16T19:55:23.569Z,71.45
2023-05-16T19:57:52.224Z,71.59
2023-05-16T20:00:19.017Z,72.07
2023-05-16T20:02:45.739Z,72.32
2023-05-16T20:05:12.858Z,72.30
2023-05-16T20:07:40.398Z,72.14
2023-05-16T20:10:08.612Z,72.99
2023-05-16T20:12:35.243Z,72.47
2023-05-16T20:15:02.094Z,72.56
2023-05-16T20:17:28.683Z,72.66
2023-05-16T20:19:55.485Z,73.07
2023-05-16T20:22:22.537Z,73.37
2023-05-16T20:24:48.999Z,73.23
2023-05-16T20:27:15.485Z,73.01
2023-05-16T20:29:42.060Z,73.18
2023-05-16T20:32:08.753Z,72.96
2023-05-16T20:34:35.675Z,73.20
2023-05-16T20:37:05.305Z,72.77
2023-05-16T20:39:32.324Z,72.43
2023-05-16T20:41:59.088Z,72.27
2023-05-16T20:44:26.388Z,72.13
2023-05-16T20:46:52.872Z,72.26
2023-05-16T20:49:19.704Z,72.37
2023-05-16T20:51:46.236Z,72.14
2023-05-16T20:54:13.484Z,72.58
2023-05-16T20:56:40.066Z,72.84
2023-05-16T20:59:06.540Z,72.98
2023-05-16T21:01:33.501Z,72.73
2023-05-16T21:04:00.193Z,73.16
2023-05-16T21:06:26.752Z,73.53
2023-05-16T21:08:53.675Z,74.00
2023-05-16T21:11:20.113Z,73.74
2023-05-16T21:13:48.989Z,73.92
2023-05-16T21:16:15.605Z,74.21
2023-05-16T21:18:42.442Z,74.66
2023-05-16T21:21:09.116Z,75.05
2023-05-16T21:23:35.676Z,75.48
2023-05-16T21:26:02.432Z,75.60
2023-05-16T21:28:31.164Z,75.59
2023-05-16T21:30:59.167Z,76.00
2023-05-16T21:33:25.862Z,76.14
2023-05-16T21:35:53.214Z,76.34
2023-05-16T21:38:19.604Z,76.20
2023-05-16T21:40:46.591Z,76.52
2023-05-16T21:43:13.716Z,76.83
2023-05-16T21:45:40.403Z,77.35
2023-05-16T21:48:07.512Z,76.95
2023-05-16T21:50:34.120Z,77.49
2023-05-16T21:53:00.635Z,77.74
2023-05-16T21:55:27.729Z,77.27
2023-05-16T21:57:54.337Z,77.81
2023-05-16T22:00:21.018Z,78.00
2023-05-16T22:02:48.743Z,77.82
2023-05-16T22:05:19.070Z,78.27
2023-05-16T22:07:45.937Z,77.76
2023-05-16T22:10:12.462Z,78.05
2023-05-16T22:12:38.973Z,78.25
2023-05-16T22:15:05.949Z,77.86
2023-05-16T22:17:32.495Z,77.97
2023-05-16T22:19:59.023Z,78.41
2023-05-16T22:22:25.534Z,78.73
2023-05-16T22:24:52.226Z,78.50
2023-05-16T22:27:18.722Z,78.59
2023-05-16T22:29:45.262Z,79.44
2023-05-16T22:32:12.064Z,79.00
2023-05-16T22:34:42.316Z,79.19
2023-05-16T22:37:09.872Z,79.96
2023-05-16T22:39:36.653Z,79.64
2023-05-16T22:42:03.698Z,79.17
2023-05-16T22:44:30.372Z,79.54
2023-05-16T22:46:56.965Z,79.49
2023-05-16T22:49:23.544Z,79.59
2023-05-16T22:51:50.297Z,79.80
2023-05-16T22:54:16.943Z,79.41
2023-05-16T22:56:43.656Z,79.53
2023-05-16T22:59:11.148Z,79.80
2023-05-16T23:01:37.702Z,80.05
2023-05-16T23:04:04.568Z,79.72
2023-05-16T23:06:32.729Z,80.51
2023-05-16T23:09:04.014Z,80.75
2023-05-16T23:11:31.334Z,80.84
2023-05-16T23:13:58.157Z,81.28
2023-05-16T23:16:24.762Z,80.98
2023-05-16T23:18:51.313Z,81.53
2023-05-16T23:21:17.844Z,81.75
2023-05-16T23:23:44.382Z,81.63
2023-05-16T23:26:10.949Z,81.77
2023-05-16T23:28:37.345Z,82.17
2023-05-16T23:31:03.914Z,82.25
2023-05-16T23:33:30.802Z,81.98
2023-05-16T23:35:57.242Z,82.32
2023-05-16T23:38:25.603Z,81.91
2023-05-16T23:40:52.065Z,82.13
2023-05-16T23:43:18.713Z,82.45
2023-05-16T23:45:45.314Z,82.65
2023-05-16T23:48:11.805Z,82.38
2023-05-16T23:50:38.294Z,82.66
2023-05-16T23:53:04.896Z,83.04
2023-05-16T23:55:31.517Z,82.84
2023-05-16T23:57:57.971Z,83.29
